Time;durP1;ratioP1;P1;durP2;ratioP2;P2;SDS_P1;SDS_P2;PMS_P1;PMS_P2;Temp;Humidity;BMP_temperature;BMP_pressure;BME280_temperature;BME280_humidity;BME280_pressure;Samples;Min_cycle;Max_cycle;Signal;HPM_P1;HPM_P2
2023/06/25 00:00:20;;;;;;;7.68;6.97;;;;;;;19.80;78.07;102100.28;4996670;28;20102;-84
2023/06/25 00:02:46;;;;;;;8.10;7.40;;;;;;;19.78;78.41;102099.53;4996359;28;20084;-84
2023/06/25 00:05:12;;;;;;;8.10;7.30;;;;;;;19.75;78.25;102090.81;5014832;28;20040;-84
2023/06/25 00:07:39;;;;;;;7.22;6.55;;;;;;;19.74;78.67;102090.88;5015454;28;20045;-84
2023/06/25 00:10:04;;;;;;;8.30;7.50;;;;;;;19.73;78.45;102087.34;5001005;28;20048;-84
2023/06/25 00:12:30;;;;;;;8.20;7.50;;;;;;;19.72;78.44;102082.13;4995923;28;20026;-84
2023/06/25 00:14:55;;;;;;;7.32;6.72;;;;;;;19.72;78.84;102076.81;4995688;28;20291;-84
2023/06/25 00:17:21;;;;;;;8.32;7.63;;;;;;;19.70;78.81;102076.91;4996079;28;20042;-84
2023/06/25 00:19:46;;;;;;;8.82;7.93;;;;;;;19.69;78.97;102074.31;4995429;28;20045;-84
2023/06/25 00:22:12;;;;;;;8.52;7.72;;;;;;;19.68;78.81;102069.94;4978622;28;20057;-84
2023/06/25 00:24:38;;;;;;;8.80;7.70;;;;;;;19.67;79.11;102074.41;4996374;28;20034;-84
2023/06/25 00:27:04;;;;;;;8.90;8.07;;;;;;;19.65;79.12;102070.16;4978296;28;20217;-84
2023/06/25 00:29:29;;;;;;;8.52;7.78;;;;;;;19.64;79.19;102069.25;4995973;28;20034;-84
2023/06/25 00:31:55;;;;;;;9.32;8.40;;;;;;;19.63;79.27;102058.72;4995778;28;20049;-84
2023/06/25 00:34:20;;;;;;;8.82;8.02;;;;;;;19.62;79.31;102059.69;5007548;28;20360;-84
2023/06/25 00:36:48;;;;;;;9.13;8.32;;;;;;;19.60;79.55;102059.78;4998113;28;20029;-84
2023/06/25 00:39:13;;;;;;;9.25;8.38;;;;;;;19.59;79.42;102054.53;5008072;28;20034;-84
2023/06/25 00:41:39;;;;;;;9.68;8.68;;;;;;;19.56;79.76;102052.94;4996010;28;20393;-84
2023/06/25 00:44:08;;;;;;;9.45;8.65;;;;;;;19.55;79.97;102051.22;4977692;28;20061;-84
2023/06/25 00:46:33;;;;;;;9.27;8.38;;;;;;;19.54;79.83;102044.22;4978170;28;20030;-84
2023/06/25 00:49:05;;;;;;;9.27;8.30;;;;;;;19.54;80.15;102049.53;4995796;28;20199;-84
2023/06/25 00:51:31;;;;;;;9.35;8.45;;;;;;;19.52;80.25;102038.13;4996037;28;20038;-84
2023/06/25 00:53:57;;;;;;;9.95;8.98;;;;;;;19.51;80.59;102031.09;4978093;28;20030;-84
2023/06/25 00:56:29;;;;;;;10.35;8.63;;;;;;;19.51;80.30;102025.78;4978179;28;20037;-84
2023/06/25 00:59:00;;;;;;;9.80;8.88;;;;;;;19.47;80.47;102022.47;4995327;28;20294;-84
2023/06/25 01:04:33;;;;;;;8.73;7.95;;;;;;;19.46;80.78;102026.03;4963171;23;20359;-78
2023/06/25 01:07:02;;;;;;;9.50;8.60;;;;;;;19.45;80.84;102027.00;4997258;28;20026;-78
2023/06/25 01:09:31;;;;;;;9.73;8.80;;;;;;;19.43;80.83;102020.06;4996847;28;20053;-78
2023/06/25 01:12:03;;;;;;;9.30;8.40;;;;;;;19.43;81.02;102020.94;5014676;28;20244;-78
2023/06/25 01:14:29;;;;;;;9.15;8.25;;;;;;;19.42;81.09;102021.03;5014923;28;20476;-78
2023/06/25 01:16:55;;;;;;;9.80;8.90;;;;;;;19.41;81.18;102008.66;5013700;28;20091;-78
2023/06/25 01:19:29;;;;;;;9.35;8.45;;;;;;;19.39;81.34;102011.41;5018061;28;20038;-78
2023/06/25 01:22:03;;;;;;;9.48;8.57;;;;;;;19.38;81.59;102005.25;5000322;28;20273;-78
2023/06/25 01:24:29;;;;;;;9.85;8.73;;;;;;;19.36;81.42;101996.53;5000522;28;20029;-78
2023/06/25 01:26:59;;;;;;;9.23;8.43;;;;;;;19.36;81.49;101995.69;5000164;28;20268;-78
2023/06/25 01:29:26;;;;;;;11.70;8.65;;;;;;;19.34;81.50;101993.13;5000310;28;20072;-78
2023/06/25 01:31:53;;;;;;;8.68;7.88;;;;;;;19.33;81.67;101994.03;5017773;28;20064;-78
2023/06/25 01:34:19;;;;;;;10.32;9.25;;;;;;;19.32;81.59;101988.84;5011748;28;20084;-78
2023/06/25 01:36:48;;;;;;;9.32;8.43;;;;;;;19.32;81.94;101989.69;5019921;28;20033;-78
2023/06/25 01:39:14;;;;;;;10.88;9.35;;;;;;;19.32;82.15;101984.38;5029196;28;20336;-78
2023/06/25 01:41:40;;;;;;;9.75;8.75;;;;;;;19.32;82.18;101973.75;5018012;28;20250;-78
2023/06/25 01:44:05;;;;;;;9.32;8.43;;;;;;;19.29;82.22;101973.09;5016162;28;20025;-78
2023/06/25 01:46:31;;;;;;;8.52;7.72;;;;;;;19.29;82.30;101978.41;5017604;28;20037;-78
2023/06/25 01:48:56;;;;;;;9.88;8.88;;;;;;;19.28;82.41;101974.03;4999866;28;20033;-78
2023/06/25 01:51:22;;;;;;;10.00;9.10;;;;;;;19.27;82.53;101970.53;5017625;28;20214;-78
2023/06/25 01:53:48;;;;;;;9.88;8.80;;;;;;;19.26;82.56;101966.13;5016034;28;20029;-78
2023/06/25 01:56:13;;;;;;;9.10;8.30;;;;;;;19.25;82.75;101964.44;5017748;28;20105;-78
2023/06/25 01:58:39;;;;;;;8.55;7.75;;;;;;;19.26;82.69;101959.97;5017654;28;20332;-78
2023/06/25 02:01:04;;;;;;;9.48;8.48;;;;;;;19.24;82.89;101956.56;5017625;28;20121;-78
2023/06/25 02:03:29;;;;;;;9.55;8.55;;;;;;;19.23;83.00;101952.19;5022199;28;20248;-78
2023/06/25 02:05:55;;;;;;;9.40;8.40;;;;;;;19.21;83.12;101949.66;5037087;28;20057;-78
2023/06/25 02:08:20;;;;;;;9.52;8.70;;;;;;;19.20;83.35;101952.41;5019282;28;20028;-78
2023/06/25 02:10:46;;;;;;;9.70;8.73;;;;;;;19.17;83.39;101946.31;5017859;28;20337;-78
2023/06/25 02:13:11;;;;;;;9.43;8.52;;;;;;;19.17;83.76;101948.09;4999611;28;20390;-78
2023/06/25 02:15:36;;;;;;;9.10;8.30;;;;;;;19.14;83.58;101937.69;5017330;28;20447;-78
2023/06/25 02:18:02;;;;;;;9.43;8.55;;;;;;;19.13;83.75;101934.16;5017022;28;20048;-78
2023/06/25 02:20:27;;;;;;;9.75;8.73;;;;;;;19.12;83.64;101934.28;4999530;28;20678;-78
2023/06/25 02:22:53;;;;;;;9.20;8.40;;;;;;;19.11;83.91;101930.75;4999136;28;20072;-78
2023/06/25 02:25:18;;;;;;;10.13;8.73;;;;;;;19.11;84.01;101927.25;5016953;28;20036;-78
2023/06/25 02:27:43;;;;;;;8.88;8.07;;;;;;;19.10;83.89;101928.16;5017179;28;20264;-78
2023/06/25 02:30:10;;;;;;;8.43;7.63;;;;;;;19.09;83.99;101932.63;5015907;28;20050;-78
2023/06/25 02:32:35;;;;;;;9.00;8.30;;;;;;;19.09;83.98;101929.13;5017129;28;20069;-78
2023/06/25 02:35:01;;;;;;;9.82;8.82;;;;;;;19.08;84.07;101928.28;5015756;28;20320;-78
2023/06/25 02:37:26;;;;;;;10.63;7.95;;;;;;;19.06;84.12;101922.19;5036551;28;20053;-78
2023/06/25 02:39:51;;;;;;;9.07;8.00;;;;;;;19.06;84.14;101918.69;5005842;28;20034;-78
2023/06/25 02:42:17;;;;;;;9.07;8.15;;;;;;;19.04;84.37;101918.78;5016553;28;20096;-78
2023/06/25 02:44:42;;;;;;;8.45;7.75;;;;;;;19.02;84.42;101917.16;4999068;28;20408;-78
2023/06/25 02:47:07;;;;;;;8.55;7.72;;;;;;;19.00;84.74;101909.28;5016442;28;20042;-78
2023/06/25 02:49:33;;;;;;;8.40;7.70;;;;;;;18.99;84.75;101908.44;4998788;28;20036;-78
2023/06/25 02:51:58;;;;;;;9.32;8.43;;;;;;;18.98;84.81;101912.03;4999067;28;20080;-78
2023/06/25 02:54:24;;;;;;;10.05;8.48;;;;;;;18.97;84.56;101909.47;5017116;28;20037;-78
2023/06/25 02:56:50;;;;;;;8.55;7.78;;;;;;;18.95;84.78;101912.19;5016620;28;20252;-78
2023/06/25 02:59:16;;;;;;;8.27;7.55;;;;;;;18.94;84.95;101907.84;4999184;28;20033;-78
2023/06/25 03:01:41;;;;;;;9.73;8.82;;;;;;;18.95;84.94;101912.19;4999247;28;20072;-78
2023/06/25 03:04:07;;;;;;;8.60;7.90;;;;;;;18.92;85.03;101912.41;5007393;28;20069;-78
2023/06/25 03:06:32;;;;;;;9.32;8.38;;;;;;;18.91;84.81;101921.31;4998599;28;20030;-78
2023/06/25 03:08:58;;;;;;;7.63;6.88;;;;;;;18.90;84.77;101919.59;4998718;28;20493;-78
2023/06/25 03:11:23;;;;;;;8.57;7.70;;;;;;;18.90;85.14;101910.78;5016620;28;20038;-78
2023/06/25 03:13:49;;;;;;;8.82;8.02;;;;;;;18.86;85.09;101912.75;4998553;28;20056;-78
2023/06/25 03:16:14;;;;;;;8.90;8.10;;;;;;;18.85;85.16;101907.56;5016492;28;20225;-78
2023/06/25 03:18:40;;;;;;;9.40;8.50;;;;;;;18.83;85.43;101906.75;5016541;28;20057;-78
2023/06/25 03:21:05;;;;;;;8.50;7.80;;;;;;;18.83;85.67;101907.66;5016066;28;20040;-78
2023/06/25 03:23:31;;;;;;;8.15;7.45;;;;;;;18.80;85.68;101900.66;4998711;28;20037;-78
2023/06/25 03:25:56;;;;;;;8.35;7.55;;;;;;;18.79;85.64;101906.94;5016359;28;20258;-78
2023/06/25 03:28:21;;;;;;;8.98;8.07;;;;;;;18.79;85.67;101906.06;5016476;28;20049;-78
2023/06/25 03:30:47;;;;;;;8.50;7.72;;;;;;;18.78;85.73;101894.59;4998320;28;20052;-78
2023/06/25 03:33:13;;;;;;;8.98;8.05;;;;;;;18.79;85.87;101896.31;5019047;28;20341;-78
2023/06/25 03:35:38;;;;;;;9.02;8.07;;;;;;;18.78;85.89;101901.72;5018465;28;20192;-78
2023/06/25 03:38:04;;;;;;;9.30;8.30;;;;;;;18.77;85.80;101897.34;5018210;28;20037;-78
2023/06/25 03:40:29;;;;;;;8.57;7.68;;;;;;;18.76;85.87;101900.94;5000024;28;20053;-78
2023/06/25 03:42:54;;;;;;;8.43;7.13;;;;;;;18.77;86.00;101900.00;5016042;28;20100;-78
2023/06/25 03:45:20;;;;;;;7.93;7.22;;;;;;;18.75;85.94;101891.25;4998982;28;20018;-78
2023/06/25 03:47:45;;;;;;;8.98;8.10;;;;;;;18.75;86.31;101886.81;5016729;28;20099;-78
2023/06/25 03:50:11;;;;;;;8.90;7.97;;;;;;;18.75;86.13;101891.25;4998712;28;20026;-78
2023/06/25 03:52:36;;;;;;;8.55;7.70;;;;;;;18.74;86.15;101894.88;5016469;28;20045;-78
2023/06/25 03:55:02;;;;;;;16.65;12.15;;;;;;;18.76;86.46;101893.00;5015950;28;20048;-78
2023/06/25 03:57:27;;;;;;;14.90;11.35;;;;;;;18.78;87.35;101885.78;4998586;28;20022;-78
2023/06/25 03:59:52;;;;;;;10.18;9.10;;;;;;;18.80;87.31;101881.25;4998192;28;20034;-78
2023/06/25 04:02:18;;;;;;;12.57;11.27;;;;;;;18.80;87.45;101886.56;4998192;28;20065;-78
2023/06/25 04:04:43;;;;;;;9.95;8.95;;;;;;;18.80;87.39;101882.09;5013323;28;20049;-78
2023/06/25 04:07:08;;;;;;;12.85;11.13;;;;;;;18.81;87.59;101877.69;5017936;28;20104;-78
2023/06/25 04:09:34;;;;;;;14.57;11.55;;;;;;;18.83;87.70;101874.91;5007889;28;20036;-78
2023/06/25 04:11:59;;;;;;;11.73;10.32;;;;;;;18.83;87.97;101870.50;5015887;28;20041;-78
2023/06/25 04:14:24;;;;;;;14.27;11.50;;;;;;;18.84;88.47;101884.59;5016242;28;20025;-78
2023/06/25 04:16:50;;;;;;;15.75;12.07;;;;;;;18.84;89.10;101877.50;5015815;28;20053;-78
2023/06/25 04:19:15;;;;;;;12.48;11.10;;;;;;;18.82;89.23;101884.69;5015718;28;20037;-78
2023/06/25 04:21:40;;;;;;;11.65;10.32;;;;;;;18.83;89.21;101883.75;5016243;28;20033;-78
2023/06/25 04:24:06;;;;;;;10.77;9.75;;;;;;;18.83;89.15;101891.72;5015482;28;20053;-78
2023/06/25 04:26:32;;;;;;;15.15;10.85;;;;;;;18.83;89.08;101886.41;4997921;28;20022;-78
2023/06/25 04:28:57;;;;;;;11.23;9.48;;;;;;;18.84;88.90;101880.13;4997870;28;20037;-78
2023/06/25 04:31:23;;;;;;;9.63;8.70;;;;;;;18.83;88.85;101881.09;4998174;28;20132;-78
2023/06/25 04:33:49;;;;;;;9.02;8.18;;;;;;;18.82;88.43;101882.03;5023032;28;20034;-78
2023/06/25 04:36:15;;;;;;;11.32;10.23;;;;;;;18.83;88.51;101880.22;5035710;28;20112;-78
2023/06/25 04:38:40;;;;;;;9.07;8.18;;;;;;;18.84;88.31;101882.78;5015035;28;20064;-78
2023/06/25 04:41:05;;;;;;;8.98;8.10;;;;;;;18.84;88.25;101881.94;5015598;28;20197;-78
2023/06/25 04:43:31;;;;;;;10.27;8.45;;;;;;;18.85;87.98;101886.31;5015660;28;20160;-78
2023/06/25 04:45:56;;;;;;;9.02;8.13;;;;;;;18.84;88.14;101879.28;4997976;28;20057;-78
2023/06/25 04:48:22;;;;;;;9.05;8.13;;;;;;;18.83;87.82;101878.44;5015960;28;20038;-78
2023/06/25 04:50:47;;;;;;;10.02;9.10;;;;;;;18.85;87.81;101873.06;5015492;28;20034;-78
2023/06/25 04:53:13;;;;;;;16.98;11.48;;;;;;;18.85;87.93;101871.25;5018108;28;20196;-78
2023/06/25 04:55:38;;;;;;;22.70;14.80;;;;;;;18.87;89.69;101872.00;5019283;28;20041;-78
2023/06/25 04:58:04;;;;;;;15.00;13.23;;;;;;;18.89;90.05;101864.81;5001582;28;20021;-78
2023/06/25 05:00:29;;;;;;;17.48;13.02;;;;;;;18.91;90.47;101859.41;5019513;28;20391;-78
2023/06/25 05:02:55;;;;;;;12.75;10.70;;;;;;;18.92;90.09;101874.41;5001606;28;20033;-78
2023/06/25 05:05:20;;;;;;;11.35;10.15;;;;;;;18.93;90.01;101865.47;5020772;28;20057;-78
2023/06/25 05:07:47;;;;;;;12.15;10.38;;;;;;;18.95;89.93;101874.19;5039408;28;20033;-78
2023/06/25 05:10:14;;;;;;;15.93;13.20;;;;;;;18.96;90.19;101871.47;5005963;28;20037;-78
2023/06/25 05:12:39;;;;;;;21.25;14.02;;;;;;;18.98;90.60;101882.84;5019184;28;20261;-78
2023/06/25 05:15:05;;;;;;;15.35;12.80;;;;;;;19.01;90.32;101880.94;5001312;28;20097;-78
2023/06/25 05:17:31;;;;;;;12.52;11.23;;;;;;;19.02;90.27;101880.00;5000962;28;20042;-78
2023/06/25 05:19:56;;;;;;;12.25;10.95;;;;;;;19.04;89.74;101886.06;5000802;28;20374;-78
2023/06/25 05:22:22;;;;;;;11.73;9.88;;;;;;;19.04;89.81;101884.25;5018763;28;20278;-78
2023/06/25 05:24:47;;;;;;;10.32;9.23;;;;;;;19.06;89.55;101881.53;5001260;28;20021;-78
2023/06/25 05:27:13;;;;;;;10.63;9.63;;;;;;;19.07;89.36;101884.09;5018877;28;20080;-78
2023/06/25 05:29:38;;;;;;;9.20;8.32;;;;;;;19.07;89.16;101878.78;5018798;28;20046;-78
2023/06/25 05:32:04;;;;;;;9.75;8.68;;;;;;;19.08;88.93;101879.63;5018591;28;20042;-78
2023/06/25 05:34:30;;;;;;;9.85;8.88;;;;;;;19.08;88.46;101875.19;5031355;28;20236;-78
2023/06/25 05:36:55;;;;;;;9.32;8.43;;;;;;;19.10;88.13;101885.69;5038271;28;20044;-78
2023/06/25 05:39:21;;;;;;;10.63;9.13;;;;;;;19.09;87.90;101882.19;5029763;28;20262;-79
2023/06/25 05:41:46;;;;;;;8.15;7.25;;;;;;;19.12;87.63;101875.88;5000544;28;20029;-79
2023/06/25 05:44:12;;;;;;;9.50;8.55;;;;;;;19.12;87.21;101875.88;5018717;28;20100;-78
2023/06/25 05:46:38;;;;;;;10.70;9.50;;;;;;;19.13;87.26;101877.56;5001146;28;20355;-78
2023/06/25 05:49:03;;;;;;;10.30;9.05;;;;;;;19.14;87.34;101888.09;5000348;28;20029;-78
2023/06/25 05:51:29;;;;;;;9.00;8.10;;;;;;;19.16;86.95;101882.69;5018149;28;20044;-78
2023/06/25 05:53:54;;;;;;;9.15;8.35;;;;;;;19.16;86.91;101875.56;5017865;28;20256;-78
2023/06/25 05:56:20;;;;;;;10.18;9.07;;;;;;;19.18;86.68;101872.81;5018068;28;20049;-78
2023/06/25 05:58:45;;;;;;;11.88;9.68;;;;;;;19.20;86.96;101870.94;5018309;28;20249;-78
2023/06/25 06:01:10;;;;;;;12.60;10.98;;;;;;;19.22;86.76;101881.47;5017940;28;20033;-78
2023/06/25 06:03:36;;;;;;;11.63;10.43;;;;;;;19.23;86.96;101869.88;5004788;28;20052;-78
2023/06/25 06:06:02;;;;;;;9.25;8.30;;;;;;;19.25;86.85;101874.16;5019813;28;20035;-78
2023/06/25 06:08:27;;;;;;;9.10;7.55;;;;;;;19.27;86.51;101869.59;5036650;28;20210;-78
2023/06/25 06:10:54;;;;;;;12.10;10.20;;;;;;;19.29;86.68;101864.19;4999605;28;20026;-78
2023/06/25 06:13:19;;;;;;;7.57;6.78;;;;;;;19.31;86.45;101873.78;5018023;28;20056;-78
2023/06/25 06:15:45;;;;;;;8.75;7.68;;;;;;;19.31;86.22;101868.47;5018099;28;20034;-78
2023/06/25 06:18:10;;;;;;;9.23;8.40;;;;;;;19.32;86.06;101870.19;5017455;28;20336;-78
2023/06/25 06:20:35;;;;;;;7.63;6.82;;;;;;;19.34;85.77;101865.63;5017687;28;20022;-78
2023/06/25 06:23:03;;;;;;;10.02;9.00;;;;;;;19.36;85.92;101865.53;4999381;28;20384;-78
2023/06/25 06:25:28;;;;;;;12.55;9.52;;;;;;;19.38;85.73;101861.81;5017665;28;20072;-78
2023/06/25 06:27:54;;;;;;;8.30;7.32;;;;;;;19.42;85.80;101856.34;5017303;28;20041;-78
2023/06/25 06:30:21;;;;;;;6.93;6.22;;;;;;;19.44;85.39;101860.59;4993694;28;20064;-78
2023/06/25 06:32:46;;;;;;;12.43;9.73;;;;;;;19.48;85.55;101853.28;4987799;28;20030;-78
2023/06/25 06:35:11;;;;;;;11.52;8.73;;;;;;;19.50;85.55;101854.91;5009927;28;20037;-78
2023/06/25 06:37:37;;;;;;;12.93;10.02;;;;;;;19.54;85.31;101851.09;4989467;28;20223;-78
2023/06/25 06:40:02;;;;;;;9.13;7.93;;;;;;;19.58;85.30;101853.59;4990000;28;20041;-78
2023/06/25 06:42:28;;;;;;;7.95;7.00;;;;;;;19.61;85.00;101850.72;5005835;28;20042;-78
2023/06/25 06:44:53;;;;;;;9.80;8.02;;;;;;;19.63;84.59;101849.69;5006959;28;20032;-78
2023/06/25 06:47:18;;;;;;;6.53;6.00;;;;;;;19.66;84.46;101848.63;5005729;28;20052;-78
2023/06/25 06:49:44;;;;;;;7.20;6.60;;;;;;;19.69;84.45;101849.28;5008195;28;20057;-78
2023/06/25 06:52:09;;;;;;;6.40;5.75;;;;;;;19.72;84.18;101849.09;5000950;28;20040;-78
2023/06/25 06:54:35;;;;;;;6.10;5.60;;;;;;;19.75;83.77;101846.28;5034349;28;20046;-78
2023/06/25 06:57:00;;;;;;;9.73;7.93;;;;;;;19.80;83.60;101850.44;5018520;28;20052;-78
2023/06/25 06:59:25;;;;;;;6.00;5.45;;;;;;;19.81;83.25;101845.03;4998492;28;20022;-78
2023/06/25 07:01:51;;;;;;;7.63;6.75;;;;;;;19.87;82.98;101854.44;4999086;28;20022;-78
2023/06/25 07:04:16;;;;;;;5.50;5.00;;;;;;;19.91;82.94;101847.94;5022399;28;20059;-78
2023/06/25 07:06:41;;;;;;;6.50;5.90;;;;;;;19.93;82.41;101844.22;4984789;28;20076;-78
2023/06/25 07:09:07;;;;;;;4.70;4.30;;;;;;;19.98;82.62;101843.94;5015371;28;20229;-78
2023/06/25 07:11:32;;;;;;;7.55;5.72;;;;;;;20.02;82.10;101839.28;5008887;28;20066;-78
2023/06/25 07:13:58;;;;;;;5.38;4.88;;;;;;;20.07;81.72;101840.69;5008469;28;20026;-78
2023/06/25 07:16:23;;;;;;;7.63;6.70;;;;;;;20.11;81.62;101831.56;5002799;28;20224;-78
2023/06/25 07:18:48;;;;;;;7.20;6.60;;;;;;;20.16;80.47;101836.59;4996430;28;20038;-78
2023/06/25 07:21:14;;;;;;;5.40;4.90;;;;;;;20.20;80.94;101840.75;5002914;28;20097;-78
2023/06/25 07:23:39;;;;;;;4.90;4.50;;;;;;;20.24;80.76;101844.91;5010788;28;20048;-78
2023/06/25 07:26:04;;;;;;;9.30;6.57;;;;;;;20.28;80.50;101838.44;5009081;28;20065;-78
2023/06/25 07:28:30;;;;;;;4.65;4.32;;;;;;;20.32;80.47;101839.94;5012552;28;20525;-78
2023/06/25 07:30:55;;;;;;;5.20;4.80;;;;;;;20.38;80.07;101837.84;5012763;28;20103;-78
2023/06/25 07:33:21;;;;;;;6.20;4.38;;;;;;;20.43;80.06;101838.34;4998220;28;20104;-78
2023/06/25 07:35:46;;;;;;;4.38;4.07;;;;;;;20.46;79.53;101840.81;4995369;28;20037;-78
2023/06/25 07:38:12;;;;;;;3.60;3.40;;;;;;;20.50;79.52;101832.53;5007102;28;20032;-78
2023/06/25 07:40:37;;;;;;;4.70;4.30;;;;;;;20.55;79.54;101839.38;5015479;28;20273;-78
2023/06/25 07:43:03;;;;;;;3.90;3.60;;;;;;;20.59;79.11;101838.19;5011111;28;20029;-78
2023/06/25 07:45:29;;;;;;;6.32;5.10;;;;;;;20.62;77.85;101832.69;5007679;28;20252;-78
2023/06/25 07:47:55;;;;;;;4.18;3.80;;;;;;;20.67;78.20;101830.59;4993577;28;20038;-78
2023/06/25 07:50:21;;;;;;;5.30;4.03;;;;;;;20.71;77.72;101834.75;4992231;28;20316;-78
2023/06/25 07:52:46;;;;;;;4.97;4.57;;;;;;;20.74;76.98;101828.34;5010169;28;20045;-78
2023/06/25 07:55:11;;;;;;;3.85;3.55;;;;;;;20.79;76.86;101828.88;4987748;28;20026;-78
2023/06/25 07:57:37;;;;;;;4.13;3.75;;;;;;;20.83;77.14;101825.94;5004367;28;20046;-78
2023/06/25 08:00:03;;;;;;;3.35;3.00;;;;;;;20.85;76.68;101824.00;5002004;28;20053;-78
2023/06/25 08:02:28;;;;;;;3.92;3.42;;;;;;;20.88;75.30;101823.81;5010260;28;20084;-78
2023/06/25 08:04:53;;;;;;;3.40;3.13;;;;;;;20.91;75.20;101822.72;5011971;28;20112;-78
2023/06/25 08:07:19;;;;;;;2.65;2.45;;;;;;;20.95;75.03;101820.72;5010052;28;20256;-78
2023/06/25 08:09:45;;;;;;;4.15;3.08;;;;;;;20.99;74.71;101819.53;5013167;28;20045;-78
2023/06/25 08:12:10;;;;;;;2.80;2.60;;;;;;;21.01;74.18;101815.81;5010869;28;20037;-78
2023/06/25 08:14:36;;;;;;;3.83;3.45;;;;;;;21.05;72.63;101813.78;5022385;28;20264;-78
2023/06/25 08:17:01;;;;;;;3.20;2.97;;;;;;;21.08;73.01;101817.09;5012724;28;20042;-78
2023/06/25 08:19:26;;;;;;;3.67;3.38;;;;;;;21.14;72.58;101813.16;5012711;28;20038;-78
2023/06/25 08:21:52;;;;;;;2.53;2.40;;;;;;;21.19;72.70;101805.69;5012767;28;20368;-78
2023/06/25 08:24:17;;;;;;;2.90;2.67;;;;;;;21.23;72.23;101807.19;5011938;28;20437;-78
2023/06/25 08:26:42;;;;;;;2.90;2.70;;;;;;;21.27;71.56;101807.81;5009945;28;20037;-78
2023/06/25 08:29:08;;;;;;;3.20;2.90;;;;;;;21.29;69.49;101806.72;4996642;28;20101;-78
2023/06/25 08:31:33;;;;;;;2.97;2.78;;;;;;;21.33;69.88;101804.69;5008632;28;20057;-78
2023/06/25 08:33:58;;;;;;;4.63;2.95;;;;;;;21.35;68.81;101810.75;5009674;28;20073;-78
2023/06/25 08:36:24;;;;;;;4.13;2.78;;;;;;;21.40;68.54;101802.47;4982551;28;20037;-78
2023/06/25 08:38:49;;;;;;;3.00;2.75;;;;;;;21.42;66.90;101801.38;5011312;28;20033;-78
2023/06/25 08:41:15;;;;;;;2.92;2.67;;;;;;;21.46;67.08;101796.72;5011109;28;20107;-78
2023/06/25 08:43:40;;;;;;;2.75;2.55;;;;;;;21.50;67.04;101790.19;5009862;28;20346;-78
2023/06/25 08:46:08;;;;;;;2.63;2.42;;;;;;;21.55;66.85;101789.88;5015413;28;20079;-78
2023/06/25 08:48:36;;;;;;;2.40;2.20;;;;;;;21.60;63.80;101787.72;5012805;28;20095;-78
2023/06/25 08:51:06;;;;;;;2.30;2.03;;;;;;;21.67;64.50;101795.16;5013192;28;20045;-78
2023/06/25 08:53:32;;;;;;;2.72;2.53;;;;;;;21.73;63.69;101785.03;5016438;28;20426;-78
2023/06/25 08:55:59;;;;;;;2.00;1.90;;;;;;;21.79;63.59;101785.44;5013892;28;20030;-78
2023/06/25 08:58:25;;;;;;;3.03;2.20;;;;;;;21.85;63.77;101792.13;4990698;28;20034;-78
2023/06/25 09:00:51;;;;;;;2.15;2.00;;;;;;;21.90;63.42;101786.44;5007770;28;20268;-78
2023/06/25 09:03:16;;;;;;;3.38;2.13;;;;;;;21.92;63.10;101782.72;5010540;28;20075;-78
2023/06/25 09:05:53;;;;;;;2.30;2.20;;;;;;;21.93;61.90;101776.41;5007618;28;20330;-78
2023/06/25 09:08:23;;;;;;;7.22;2.58;;;;;;;21.96;62.54;101783.34;5010122;28;20081;-78
2023/06/25 09:10:52;;;;;;;2.42;2.22;;;;;;;21.99;62.78;101786.63;5008601;28;20084;-78
2023/06/25 09:13:25;;;;;;;2.33;2.05;;;;;;;22.04;63.38;101786.28;5005795;28;20044;-78
2023/06/25 09:15:52;;;;;;;4.00;2.30;;;;;;;22.08;62.79;101778.91;5008819;28;20202;-78
2023/06/25 09:18:21;;;;;;;6.45;2.50;;;;;;;22.11;61.92;101776.84;5005629;28;20030;-78
2023/06/25 09:20:50;;;;;;;;;;;;;;;22.16;62.25;101773.84;4990431;28;20030;-78
2023/06/25 09:23:20;;;;;;;2.97;2.25;;;;;;;22.18;61.63;101779.91;5005356;28;20042;-78
2023/06/25 09:25:46;;;;;;;2.70;2.50;;;;;;;22.21;62.08;101771.66;5011456;28;20022;-78
2023/06/25 09:28:11;;;;;;;3.33;3.00;;;;;;;22.24;61.63;101772.28;5006144;28;20026;-78
2023/06/25 09:30:39;;;;;;;2.63;2.42;;;;;;;22.29;61.99;101763.97;5006917;28;20038;-78
2023/06/25 09:33:05;;;;;;;3.25;2.95;;;;;;;22.34;61.37;101767.16;5008280;28;20525;-78
2023/06/25 09:35:31;;;;;;;2.90;2.70;;;;;;;22.39;61.44;101766.78;4985483;28;20037;-78
2023/06/25 09:37:57;;;;;;;2.70;2.50;;;;;;;22.43;61.62;101766.44;4988203;28;20022;-78
2023/06/25 09:40:22;;;;;;;2.53;2.33;;;;;;;22.49;61.74;101765.13;4981106;28;20104;-78
2023/06/25 09:42:51;;;;;;;3.88;2.60;;;;;;;22.53;62.03;101766.59;4996370;28;20189;-78
2023/06/25 09:45:19;;;;;;;7.03;2.80;;;;;;;22.61;59.77;101763.31;4996673;28;20077;-78
2023/06/25 09:47:47;;;;;;;5.07;3.10;;;;;;;22.69;60.32;101758.25;4996281;28;20032;-78
2023/06/25 09:50:23;;;;;;;2.85;2.65;;;;;;;22.74;59.91;101756.06;4996325;28;20049;-78
2023/06/25 09:52:55;;;;;;;2.70;2.50;;;;;;;22.80;60.55;101754.75;4995589;28;20064;-78
2023/06/25 09:55:21;;;;;;;4.05;3.28;;;;;;;22.82;60.83;101747.47;4995708;28;20405;-78
2023/06/25 09:57:48;;;;;;;3.42;3.00;;;;;;;22.87;56.99;101747.13;4996326;28;20042;-78
2023/06/25 10:00:15;;;;;;;3.47;3.17;;;;;;;22.95;58.00;101750.84;4996549;28;20034;-79
2023/06/25 10:02:40;;;;;;;2.80;2.60;;;;;;;23.00;58.45;101737.16;4996306;28;20097;-78
2023/06/25 10:05:06;;;;;;;2.83;2.63;;;;;;;23.02;57.35;101735.22;5014568;28;20113;-78
2023/06/25 10:07:32;;;;;;;2.97;2.78;;;;;;;23.04;58.62;101733.28;5015543;28;20108;-78
2023/06/25 10:09:57;;;;;;;3.13;2.72;;;;;;;23.08;58.65;101744.59;5015819;28;20100;-78
2023/06/25 10:12:22;;;;;;;2.97;2.65;;;;;;;23.11;58.64;101734.50;5016496;28;20037;-78
2023/06/25 10:14:48;;;;;;;3.25;2.20;;;;;;;23.13;59.30;101740.56;5015670;28;20042;-78
2023/06/25 10:17:14;;;;;;;3.00;2.65;;;;;;;23.16;59.56;101728.81;5014764;28;20038;-78
2023/06/25 10:19:51;;;;;;;3.65;2.55;;;;;;;23.21;58.88;101736.44;5016433;28;20034;-78
2023/06/25 10:22:21;;;;;;;3.40;3.10;;;;;;;23.23;58.13;101731.81;5016563;28;20044;-78
2023/06/25 10:24:51;;;;;;;3.20;3.00;;;;;;;23.29;57.49;101739.34;5015442;28;20109;-78
2023/06/25 10:27:25;;;;;;;2.90;2.70;;;;;;;23.35;57.24;101731.66;4999132;28;20049;-78
2023/06/25 10:29:52;;;;;;;3.38;2.80;;;;;;;23.37;57.71;101720.88;4998913;28;20061;-78
2023/06/25 10:32:22;;;;;;;5.60;2.95;;;;;;;23.40;56.78;101723.28;5016620;28;20079;-78
2023/06/25 10:35:06;;;;;;;2.83;2.63;;;;;;;23.46;57.38;101711.25;5031804;28;20029;-78
2023/06/25 10:37:34;;;;;;;4.60;3.33;;;;;;;23.48;57.92;101712.81;5036474;28;20580;-78
2023/06/25 10:40:04;;;;;;;3.22;2.95;;;;;;;23.53;58.58;101709.78;5022517;28;20084;-78
2023/06/25 10:42:31;;;;;;;3.80;3.40;;;;;;;23.55;59.22;101699.81;5017006;28;20214;-78
2023/06/25 10:44:57;;;;;;;2.90;2.70;;;;;;;23.57;57.99;101704.03;5016592;28;20147;-78
2023/06/25 10:47:22;;;;;;;3.53;3.22;;;;;;;23.62;57.49;101697.47;5017245;28;20249;-78
2023/06/25 10:49:48;;;;;;;4.05;2.92;;;;;;;23.68;57.46;101691.63;4998099;28;20033;-78
2023/06/25 10:52:13;;;;;;;3.85;2.72;;;;;;;23.72;57.89;101699.28;5016256;28;20088;-78
2023/06/25 10:54:39;;;;;;;2.92;2.72;;;;;;;23.79;57.07;101698.75;5016376;28;20042;-78
2023/06/25 10:57:06;;;;;;;3.22;2.97;;;;;;;23.81;57.18;101689.63;5016225;28;20269;-78
2023/06/25 10:59:31;;;;;;;3.47;3.10;;;;;;;23.85;56.43;101690.22;4998350;28;20027;-78
2023/06/25 11:02:11;;;;;;;3.08;2.88;;;;;;;23.90;57.30;101690.69;5016553;28;20045;-78
2023/06/25 11:04:36;;;;;;;4.10;3.55;;;;;;;23.93;57.69;101682.44;5030201;28;20041;-78
2023/06/25 11:07:02;;;;;;;11.80;2.92;;;;;;;23.99;57.98;101683.72;5035896;28;20068;-78
2023/06/25 11:09:28;;;;;;;3.88;3.40;;;;;;;24.02;58.26;101676.28;5025240;28;20081;-78
2023/06/25 11:11:53;;;;;;;5.30;3.30;;;;;;;24.05;58.13;101683.19;5013559;28;20061;-78
2023/06/25 11:14:19;;;;;;;14.35;3.85;;;;;;;24.08;57.71;101681.13;5014609;28;20037;-78
2023/06/25 11:16:46;;;;;;;6.97;3.75;;;;;;;24.13;58.05;101673.56;5014894;28;20236;-78
2023/06/25 11:19:11;;;;;;;6.35;3.90;;;;;;;24.17;57.86;101674.13;5014816;28;20072;-78
2023/06/25 11:21:36;;;;;;;4.20;3.80;;;;;;;24.21;58.29;101672.03;5014445;28;20061;-78